»·PEaware :: N5002T KSBA-KSNA

N5002T :: KSBA-KSNA

FLIGHT INFORMATION

Flight Status: Arrived
Operator: Privately registered:
United States
More flights under this callsign
Pilot: Hunter M. (19355)
Aircraft: CESSNA 172 SKYHAWK
(C172)
More flights by this aircraft type
Origin: KSBA Santa Barbara Mun
United States
Destination: KSNA John Wayne-Orange Co
United States
More flights between these airports :: More routes between these airports
Route: +KWANG CMA VNY V186 BAYJY SAGER
File this flight plan on PilotEdge
Remarks: +CW / tec route SBAP6
Altitude:
(Current/Filed)
5,000ft
Speed:
(Current/Filed)
118kts
Departed: 30-May-19 03:51 PM
Arrived: 30-May-19 05:11 PM
Distance/Time
Traveled:
108nm/1:20
Distance/Time
To Go:
Arrived

Flight Plot

Page will automatically refresh every two minutes.

Flight plan parsing failed; only flown route is shown


Map Options




Map Legend


Flown Route
Filed Route
Departure Airport
Arrival Airport
Navaid (VOR, NDB)
Fix

Horizontal Profiles

Position Reports

Time Latitude Longitude Heading Altitude Ground
Speed
30-May-19 15:36 34.431450 -119.832378 357 13ft 0kts
30-May-19 15:37 34.431450 -119.832378 357 13ft 0kts
30-May-19 15:38 34.431450 -119.832378 357 13ft 0kts
30-May-19 15:39 34.431450 -119.832378 357 13ft 0kts
30-May-19 15:40 34.431450 -119.832378 357 13ft 0kts
30-May-19 15:41 34.431450 -119.832378 357 13ft 0kts
30-May-19 15:42 34.431450 -119.832378 357 13ft 0kts
30-May-19 15:43 34.431450 -119.832378 357 13ft 0kts
30-May-19 15:44 34.432033 -119.832798 329 13ft 11kts
30-May-19 15:45 34.432609 -119.833729 254 13ft 7kts
30-May-19 15:46 34.431575 -119.835345 178 13ft 10kts
30-May-19 15:47 34.428638 -119.835190 176 13ft 7kts
30-May-19 15:48 34.428540 -119.835183 177 13ft 0kts
30-May-19 15:49 34.427882 -119.835504 264 13ft 0kts
30-May-19 15:50 34.427866 -119.847813 268 209ft 78kts
30-May-19 15:51 34.428029 -119.875146 266 987ft 85kts
30-May-19 15:52 34.427887 -119.903625 266 1698ft 83kts
30-May-19 15:53 34.424423 -119.930172 212 2377ft 89kts
30-May-19 15:54 34.405029 -119.907335 130 3101ft 105kts
30-May-19 15:55 34.391930 -119.876320 95 3800ft 103kts
30-May-19 15:56 34.385196 -119.842491 104 4494ft 102kts
30-May-19 15:57 34.377753 -119.809517 92 5035ft 110kts
30-May-19 15:58 34.370241 -119.770221 104 5001ft 122kts
30-May-19 15:59 34.359910 -119.731893 104 4999ft 118kts
30-May-19 16:00 34.349889 -119.694081 104 5000ft 117kts
30-May-19 16:01 34.340199 -119.656623 104 5000ft 116kts
30-May-19 16:02 34.330607 -119.619165 104 5000ft 116kts
30-May-19 16:03 34.321037 -119.581684 103 5000ft 116kts
30-May-19 16:04 34.311445 -119.544074 103 5000ft 117kts
30-May-19 16:05 34.302306 -119.506381 103 5006ft 116kts
30-May-19 16:06 34.293715 -119.468735 103 5007ft 116kts
30-May-19 16:07 34.285228 -119.430959 103 5008ft 116kts
30-May-19 16:08 34.276961 -119.393333 102 5008ft 116kts
30-May-19 16:09 34.268584 -119.355546 103 5009ft 116kts
30-May-19 16:10 34.258909 -119.318314 106 4999ft 116kts
30-May-19 16:11 34.248949 -119.281109 106 5000ft 116kts
30-May-19 16:12 34.241258 -119.243352 97 5000ft 115kts
30-May-19 16:13 34.234100 -119.205552 104 5001ft 116kts
30-May-19 16:14 34.224725 -119.168250 104 4999ft 116kts
30-May-19 16:15 34.215497 -119.130846 104 5000ft 116kts
30-May-19 16:16 34.206338 -119.093467 105 4999ft 116kts
30-May-19 16:17 34.205440 -119.055111 86 5002ft 114kts
30-May-19 16:18 34.206209 -119.016797 85 5002ft 114kts
30-May-19 16:19 34.206912 -118.978226 86 5000ft 114kts
30-May-19 16:20 34.207277 -118.939788 85 4999ft 114kts
30-May-19 16:21 34.207736 -118.901341 85 4999ft 114kts
30-May-19 16:22 34.208318 -118.862903 85 4999ft 114kts
30-May-19 16:23 34.210002 -118.824558 84 5001ft 114kts
30-May-19 16:24 34.210841 -118.786029 85 5001ft 114kts
30-May-19 16:25 34.211726 -118.747632 85 5001ft 114kts
30-May-19 16:26 34.212690 -118.709060 85 5002ft 114kts
30-May-19 16:27 34.213732 -118.670498 84 5001ft 114kts
30-May-19 16:28 34.214857 -118.631990 84 4998ft 114kts
30-May-19 16:29 34.216071 -118.593563 84 4995ft 114kts
30-May-19 16:30 34.217506 -118.554950 84 4987ft 115kts
30-May-19 16:31 34.218994 -118.516346 84 4987ft 114kts
30-May-19 16:32 34.207445 -118.490939 208 5016ft 105kts
30-May-19 16:33 34.183813 -118.510577 258 5002ft 101kts
30-May-19 16:34 34.176104 -118.539556 179 4989ft 113kts
30-May-19 16:35 34.164102 -118.506165 101 4992ft 116kts
30-May-19 16:36 34.156478 -118.468211 101 4988ft 116kts
30-May-19 16:37 34.148959 -118.430393 101 4988ft 115kts
30-May-19 16:38 34.141533 -118.392669 101 4989ft 115kts
30-May-19 16:39 34.134155 -118.354621 101 4984ft 116kts
30-May-19 16:40 34.126900 -118.316285 102 4970ft 117kts
30-May-19 16:41 34.118798 -118.278379 104 4994ft 115kts
30-May-19 16:42 34.111184 -118.240490 105 5002ft 116kts
30-May-19 16:43 34.103697 -118.202086 105 4979ft 117kts
30-May-19 16:44 34.095303 -118.164564 105 5017ft 115kts
30-May-19 16:45 34.086431 -118.126940 105 5021ft 116kts
30-May-19 16:46 34.077312 -118.089850 105 5040ft 115kts
30-May-19 16:47 34.068147 -118.052520 104 5040ft 116kts
30-May-19 16:48 34.059026 -118.015050 104 5040ft 116kts
30-May-19 16:49 34.050318 -117.977538 104 5027ft 116kts
30-May-19 16:50 34.041889 -117.940057 104 5024ft 115kts
30-May-19 16:51 34.033878 -117.903510 104 5016ft 109kts
30-May-19 16:52 34.025931 -117.868300 104 5041ft 108kts
30-May-19 16:53 34.017798 -117.833185 104 5041ft 109kts
30-May-19 16:54 34.009437 -117.796489 104 4563ft 115kts
30-May-19 16:55 33.988731 -117.769143 144 4047ft 110kts
30-May-19 16:56 33.965522 -117.748672 152 3837ft 108kts
30-May-19 16:57 33.940177 -117.728862 147 3520ft 101kts
30-May-19 16:58 33.917156 -117.716593 201 3559ft 87kts
30-May-19 16:59 33.892102 -117.730643 211 3096ft 106kts
30-May-19 17:00 33.867554 -117.746248 212 2920ft 91kts
30-May-19 17:01 33.845454 -117.760404 212 2938ft 89kts
30-May-19 17:02 33.823339 -117.774477 212 2937ft 90kts
30-May-19 17:03 33.800844 -117.789094 213 2798ft 99kts
30-May-19 17:04 33.778152 -117.803804 208 2272ft 89kts
30-May-19 17:05 33.757219 -117.817058 207 1849ft 83kts
30-May-19 17:06 33.736808 -117.830091 212 1331ft 83kts
30-May-19 17:07 33.716786 -117.843365 212 811ft 81kts
30-May-19 17:08 33.697848 -117.854563 211 415ft 70kts
30-May-19 17:10 33.681980 -117.864837 209 125ft 61kts
30-May-19 17:11 33.675633 -117.869466 292 59ft 12kts
30-May-19 17:12 33.676550 -117.871671 295 59ft 18kts

Navigation Log

Ident Type
Flight plan parsing failed, navigation log unavailable